sensor_id;sensor_type;location;lat;lon;timestamp;temperature;humidity
20204;DHT22;10261;49.010;12.034;2023-08-24T00:00:46;17.70;99.90
20204;DHT22;10261;49.010;12.034;2023-08-24T00:01:49;17.80;99.90
20204;DHT22;10261;49.010;12.034;2023-08-24T00:02:50;17.90;99.90
20204;DHT22;10261;49.010;12.034;2023-08-24T00:03:54;17.90;99.90
20204;DHT22;10261;49.010;12.034;2023-08-24T00:04:56;17.90;99.90
20204;DHT22;10261;49.010;12.034;2023-08-24T00:05:59;17.90;99.90
20204;DHT22;10261;49.010;12.034;2023-08-24T00:07:01;17.90;99.90
20204;DHT22;10261;49.010;12.034;2023-08-24T00:08:05;17.80;99.90
20204;DHT22;10261;49.010;12.034;2023-08-24T00:09:07;17.80;99.90
20204;DHT22;10261;49.010;12.034;2023-08-24T00:10:12;17.80;99.90
20204;DHT22;10261;49.010;12.034;2023-08-24T00:11:14;17.80;99.90
20204;DHT22;10261;49.010;12.034;2023-08-24T00:12:17;17.80;99.90
20204;DHT22;10261;49.010;12.034;2023-08-24T00:13:19;17.70;99.90
20204;DHT22;10261;49.010;12.034;2023-08-24T00:14:22;17.70;99.90
20204;DHT22;10261;49.010;12.034;2023-08-24T00:15:24;17.70;99.90
20204;DHT22;10261;49.010;12.034;2023-08-24T00:16:27;17.60;99.90
20204;DHT22;10261;49.010;12.034;2023-08-24T00:17:28;17.70;99.90
20204;DHT22;10261;49.010;12.034;2023-08-24T00:18:32;17.70;99.90
20204;DHT22;10261;49.010;12.034;2023-08-24T00:19:34;17.60;99.90
20204;DHT22;10261;49.010;12.034;2023-08-24T00:20:37;17.60;99.90
20204;DHT22;10261;49.010;12.034;2023-08-24T00:21:39;17.60;99.90
20204;DHT22;10261;49.010;12.034;2023-08-24T00:22:42;17.60;99.90
20204;DHT22;10261;49.010;12.034;2023-08-24T00:23:44;17.60;99.90
20204;DHT22;10261;49.010;12.034;2023-08-24T00:24:46;17.50;99.90
20204;DHT22;10261;49.010;12.034;2023-08-24T00:25:50;17.50;99.90
20204;DHT22;10261;49.010;12.034;2023-08-24T00:26:52;17.50;99.90
20204;DHT22;10261;49.010;12.034;2023-08-24T00:27:55;17.50;99.90
20204;DHT22;10261;49.010;12.034;2023-08-24T00:28:57;17.40;99.90
20204;DHT22;10261;49.010;12.034;2023-08-24T00:30:00;17.50;99.90
20204;DHT22;10261;49.010;12.034;2023-08-24T00:31:01;17.50;99.90
20204;DHT22;10261;49.010;12.034;2023-08-24T00:32:04;17.50;99.90
20204;DHT22;10261;49.010;12.034;2023-08-24T00:33:07;17.60;99.90
20204;DHT22;10261;49.010;12.034;2023-08-24T00:34:09;17.70;99.90
20204;DHT22;10261;49.010;12.034;2023-08-24T00:35:12;17.70;99.90
20204;DHT22;10261;49.010;12.034;2023-08-24T00:36:14;17.70;99.90
20204;DHT22;10261;49.010;12.034;2023-08-24T00:37:17;17.70;99.90
20204;DHT22;10261;49.010;12.034;2023-08-24T00:38:18;17.80;99.90
20204;DHT22;10261;49.010;12.034;2023-08-24T00:39:21;17.70;99.90
20204;DHT22;10261;49.010;12.034;2023-08-24T00:40:23;17.70;99.90
20204;DHT22;10261;49.010;12.034;2023-08-24T00:41:28;17.60;99.90
20204;DHT22;10261;49.010;12.034;2023-08-24T00:42:30;17.60;99.90
20204;DHT22;10261;49.010;12.034;2023-08-24T00:43:33;17.60;99.90
20204;DHT22;10261;49.010;12.034;2023-08-24T00:44:35;17.60;99.90
20204;DHT22;10261;49.010;12.034;2023-08-24T00:45:38;17.60;99.90
20204;DHT22;10261;49.010;12.034;2023-08-24T00:46:40;17.50;99.90
20204;DHT22;10261;49.010;12.034;2023-08-24T00:47:44;17.40;99.90
20204;DHT22;10261;49.010;12.034;2023-08-24T00:48:47;17.40;99.90
20204;DHT22;10261;49.010;12.034;2023-08-24T00:49:50;17.30;99.90
20204;DHT22;10261;49.010;12.034;2023-08-24T00:50:52;17.30;99.90
20204;DHT22;10261;49.010;12.034;2023-08-24T00:51:55;17.30;99.90
20204;DHT22;10261;49.010;12.034;2023-08-24T00:52:57;17.30;99.90
20204;DHT22;10261;49.010;12.034;2023-08-24T00:54:00;17.20;99.90
20204;DHT22;10261;49.010;12.034;2023-08-24T00:55:03;17.40;99.90
20204;DHT22;10261;49.010;12.034;2023-08-24T00:56:06;17.40;99.90
20204;DHT22;10261;49.010;12.034;2023-08-24T00:57:09;17.40;99.90
20204;DHT22;10261;49.010;12.034;2023-08-24T00:58:13;17.40;99.90
20204;DHT22;10261;49.010;12.034;2023-08-24T00:59:16;17.40;99.90
20204;DHT22;10261;49.010;12.034;2023-08-24T01:00:19;17.30;99.90
20204;DHT22;10261;49.010;12.034;2023-08-24T01:01:21;17.20;99.90
20204;DHT22;10261;49.010;12.034;2023-08-24T01:02:26;17.30;99.90
20204;DHT22;10261;49.010;12.034;2023-08-24T01:03:28;17.40;99.90
20204;DHT22;10261;49.010;12.034;2023-08-24T01:04:31;17.40;99.90
20204;DHT22;10261;49.010;12.034;2023-08-24T01:05:33;17.40;99.90
20204;DHT22;10261;49.010;12.034;2023-08-24T01:06:36;17.30;99.90
20204;DHT22;10261;49.010;12.034;2023-08-24T01:07:39;17.30;99.90
20204;DHT22;10261;49.010;12.034;2023-08-24T01:08:42;17.30;99.90
20204;DHT22;10261;49.010;12.034;2023-08-24T01:09:45;17.30;99.90
20204;DHT22;10261;49.010;12.034;2023-08-24T01:10:54;17.40;99.90
20204;DHT22;10261;49.010;12.034;2023-08-24T01:12:04;17.30;99.90
20204;DHT22;10261;49.010;12.034;2023-08-24T01:13:10;17.20;99.90
20204;DHT22;10261;49.010;12.034;2023-08-24T01:14:21;17.20;99.90
20204;DHT22;10261;49.010;12.034;2023-08-24T01:15:29;17.10;99.90
20204;DHT22;10261;49.010;12.034;2023-08-24T01:16:34;17.20;99.90
20204;DHT22;10261;49.010;12.034;2023-08-24T01:17:43;17.20;99.90
20204;DHT22;10261;49.010;12.034;2023-08-24T01:18:47;17.10;99.90
20204;DHT22;10261;49.010;12.034;2023-08-24T01:19:49;17.10;99.90
20204;DHT22;10261;49.010;12.034;2023-08-24T01:20:53;17.10;99.90
20204;DHT22;10261;49.010;12.034;2023-08-24T01:21:57;17.10;99.90
20204;DHT22;10261;49.010;12.034;2023-08-24T01:23:09;17.00;99.90
20204;DHT22;10261;49.010;12.034;2023-08-24T01:24:21;17.10;99.90
20204;DHT22;10261;49.010;12.034;2023-08-24T01:25:37;17.10;99.90
20204;DHT22;10261;49.010;12.034;2023-08-24T01:26:42;17.00;99.90
20204;DHT22;10261;49.010;12.034;2023-08-24T01:27:48;17.00;99.90
20204;DHT22;10261;49.010;12.034;2023-08-24T01:28:51;16.90;99.90
20204;DHT22;10261;49.010;12.034;2023-08-24T01:29:55;16.90;99.90
20204;DHT22;10261;49.010;12.034;2023-08-24T01:30:58;16.90;99.90
20204;DHT22;10261;49.010;12.034;2023-08-24T01:32:01;16.90;99.90
20204;DHT22;10261;49.010;12.034;2023-08-24T01:33:03;16.90;99.90
20204;DHT22;10261;49.010;12.034;2023-08-24T01:34:07;16.80;99.90
20204;DHT22;10261;49.010;12.034;2023-08-24T01:35:09;16.90;99.90
20204;DHT22;10261;49.010;12.034;2023-08-24T01:36:14;16.90;99.90
20204;DHT22;10261;49.010;12.034;2023-08-24T01:37:18;16.90;99.90
20204;DHT22;10261;49.010;12.034;2023-08-24T01:38:21;16.90;99.90
20204;DHT22;10261;49.010;12.034;2023-08-24T01:39:29;16.90;99.90
20204;DHT22;10261;49.010;12.034;2023-08-24T01:40:39;16.80;99.90
20204;DHT22;10261;49.010;12.034;2023-08-24T01:41:49;16.80;99.90
20204;DHT22;10261;49.010;12.034;2023-08-24T01:42:59;16.90;99.90
20204;DHT22;10261;49.010;12.034;2023-08-24T01:44:05;17.00;99.90
20204;DHT22;10261;49.010;12.034;2023-08-24T01:45:09;16.90;99.90
20204;DHT22;10261;49.010;12.034;2023-08-24T01:46:15;16.90;99.90
20204;DHT22;10261;49.010;12.034;2023-08-24T01:47:19;16.90;99.90
20204;DHT22;10261;49.010;12.034;2023-08-24T01:48:23;16.90;99.90
20204;DHT22;10261;49.010;12.034;2023-08-24T01:49:27;16.80;99.90
20204;DHT22;10261;49.010;12.034;2023-08-24T01:50:31;16.80;99.90
20204;DHT22;10261;49.010;12.034;2023-08-24T01:51:35;16.80;99.90
20204;DHT22;10261;49.010;12.034;2023-08-24T01:52:37;16.80;99.90
20204;DHT22;10261;49.010;12.034;2023-08-24T01:53:41;16.80;99.90
20204;DHT22;10261;49.010;12.034;2023-08-24T01:54:43;16.70;99.90
20204;DHT22;10261;49.010;12.034;2023-08-24T01:55:46;16.70;99.90
20204;DHT22;10261;49.010;12.034;2023-08-24T01:56:50;16.70;99.90
20204;DHT22;10261;49.010;12.034;2023-08-24T01:57:52;16.70;99.90
20204;DHT22;10261;49.010;12.034;2023-08-24T01:58:54;16.70;99.90
20204;DHT22;10261;49.010;12.034;2023-08-24T01:59:58;16.70;99.90
20204;DHT22;10261;49.010;12.034;2023-08-24T02:01:00;16.70;99.90
20204;DHT22;10261;49.010;12.034;2023-08-24T02:02:03;16.70;99.90
20204;DHT22;10261;49.010;12.034;2023-08-24T02:03:05;16.70;99.90
20204;DHT22;10261;49.010;12.034;2023-08-24T02:04:08;16.70;99.90
20204;DHT22;10261;49.010;12.034;2023-08-24T02:05:10;16.70;99.90
20204;DHT22;10261;49.010;12.034;2023-08-24T02:06:13;16.70;99.90
20204;DHT22;10261;49.010;12.034;2023-08-24T02:07:15;16.80;99.90
20204;DHT22;10261;49.010;12.034;2023-08-24T02:08:18;16.70;99.90
20204;DHT22;10261;49.010;12.034;2023-08-24T02:09:20;16.70;99.90
20204;DHT22;10261;49.010;12.034;2023-08-24T02:10:23;16.70;99.90
20204;DHT22;10261;49.010;12.034;2023-08-24T02:11:26;16.70;99.90
20204;DHT22;10261;49.010;12.034;2023-08-24T02:12:30;16.70;99.90
20204;DHT22;10261;49.010;12.034;2023-08-24T02:13:32;16.70;99.90
20204;DHT22;10261;49.010;12.034;2023-08-24T02:14:35;16.60;99.90
20204;DHT22;10261;49.010;12.034;2023-08-24T02:15:38;16.70;99.90
20204;DHT22;10261;49.010;12.034;2023-08-24T02:16:41;16.70;99.90
20204;DHT22;10261;49.010;12.034;2023-08-24T02:17:44;16.60;99.90
20204;DHT22;10261;49.010;12.034;2023-08-24T02:18:47;16.60;99.90
20204;DHT22;10261;49.010;12.034;2023-08-24T02:19:49;16.70;99.90
20204;DHT22;10261;49.010;12.034;2023-08-24T02:20:52;16.60;99.90
20204;DHT22;10261;49.010;12.034;2023-08-24T02:21:53;16.60;99.90
20204;DHT22;10261;49.010;12.034;2023-08-24T02:22:56;16.60;99.90
20204;DHT22;10261;49.010;12.034;2023-08-24T02:23:59;16.50;99.90
20204;DHT22;10261;49.010;12.034;2023-08-24T02:25:01;16.50;99.90
20204;DHT22;10261;49.010;12.034;2023-08-24T02:26:03;16.50;99.90
20204;DHT22;10261;49.010;12.034;2023-08-24T02:27:06;16.50;99.90
20204;DHT22;10261;49.010;12.034;2023-08-24T02:28:09;16.50;99.90
20204;DHT22;10261;49.010;12.034;2023-08-24T02:29:12;16.50;99.90
20204;DHT22;10261;49.010;12.034;2023-08-24T02:30:14;16.50;99.90
20204;DHT22;10261;49.010;12.034;2023-08-24T02:31:17;16.60;99.90
20204;DHT22;10261;49.010;12.034;2023-08-24T02:32:19;16.50;99.90
20204;DHT22;10261;49.010;12.034;2023-08-24T02:33:22;16.60;99.90
20204;DHT22;10261;49.010;12.034;2023-08-24T02:34:24;16.60;99.90
20204;DHT22;10261;49.010;12.034;2023-08-24T02:35:26;16.60;99.90
20204;DHT22;10261;49.010;12.034;2023-08-24T02:36:28;16.50;99.90
20204;DHT22;10261;49.010;12.034;2023-08-24T02:37:34;16.50;99.90
20204;DHT22;10261;49.010;12.034;2023-08-24T02:38:36;16.50;99.90
20204;DHT22;10261;49.010;12.034;2023-08-24T02:39:39;16.40;99.90
20204;DHT22;10261;49.010;12.034;2023-08-24T02:40:41;16.40;99.90
20204;DHT22;10261;49.010;12.034;2023-08-24T02:41:44;16.50;99.90
20204;DHT22;10261;49.010;12.034;2023-08-24T02:42:46;16.50;99.90
20204;DHT22;10261;49.010;12.034;2023-08-24T02:43:50;16.50;99.90
20204;DHT22;10261;49.010;12.034;2023-08-24T02:44:52;16.50;99.90
20204;DHT22;10261;49.010;12.034;2023-08-24T02:46:00;16.40;99.90
20204;DHT22;10261;49.010;12.034;2023-08-24T02:47:02;16.50;99.90
20204;DHT22;10261;49.010;12.034;2023-08-24T02:48:06;16.50;99.90
20204;DHT22;10261;49.010;12.034;2023-08-24T02:49:08;16.50;99.90
20204;DHT22;10261;49.010;12.034;2023-08-24T02:50:11;16.40;99.90
20204;DHT22;10261;49.010;12.034;2023-08-24T02:51:13;16.50;99.90
20204;DHT22;10261;49.010;12.034;2023-08-24T02:52:16;16.50;99.90
20204;DHT22;10261;49.010;12.034;2023-08-24T02:53:18;16.50;99.90
20204;DHT22;10261;49.010;12.034;2023-08-24T02:54:21;16.40;99.90
20204;DHT22;10261;49.010;12.034;2023-08-24T02:55:22;16.40;99.90
20204;DHT22;10261;49.010;12.034;2023-08-24T02:56:25;16.40;99.90
20204;DHT22;10261;49.010;12.034;2023-08-24T02:57:27;16.30;99.90
20204;DHT22;10261;49.010;12.034;2023-08-24T02:58:30;16.30;99.90
20204;DHT22;10261;49.010;12.034;2023-08-24T02:59:33;16.30;99.90
20204;DHT22;10261;49.010;12.034;2023-08-24T03:00:38;16.30;99.90
20204;DHT22;10261;49.010;12.034;2023-08-24T03:01:40;16.30;99.90
20204;DHT22;10261;49.010;12.034;2023-08-24T03:02:43;16.40;99.90
20204;DHT22;10261;49.010;12.034;2023-08-24T03:03:45;16.30;99.90
20204;DHT22;10261;49.010;12.034;2023-08-24T03:04:48;16.30;99.90
20204;DHT22;10261;49.010;12.034;2023-08-24T03:05:56;16.30;99.90
20204;DHT22;10261;49.010;12.034;2023-08-24T03:06:59;16.30;99.90
20204;DHT22;10261;49.010;12.034;2023-08-24T03:08:01;16.30;99.90
20204;DHT22;10261;49.010;12.034;2023-08-24T03:09:05;16.30;99.90
20204;DHT22;10261;49.010;12.034;2023-08-24T03:10:08;16.20;99.90
20204;DHT22;10261;49.010;12.034;2023-08-24T03:11:11;16.20;99.90
20204;DHT22;10261;49.010;12.034;2023-08-24T03:12:13;16.30;99.90
20204;DHT22;10261;49.010;12.034;2023-08-24T03:13:16;16.20;99.90
20204;DHT22;10261;49.010;12.034;2023-08-24T03:14:18;16.20;99.90
20204;DHT22;10261;49.010;12.034;2023-08-24T03:15:23;16.10;99.90
20204;DHT22;10261;49.010;12.034;2023-08-24T03:16:25;16.10;99.90
20204;DHT22;10261;49.010;12.034;2023-08-24T03:17:28;16.10;99.90
20204;DHT22;10261;49.010;12.034;2023-08-24T03:18:30;16.20;99.90
20204;DHT22;10261;49.010;12.034;2023-08-24T03:19:33;16.20;99.90
20204;DHT22;10261;49.010;12.034;2023-08-24T03:20:35;16.20;99.90
20204;DHT22;10261;49.010;12.034;2023-08-24T03:21:37;16.20;99.90
20204;DHT22;10261;49.010;12.034;2023-08-24T03:22:40;16.30;99.90
20204;DHT22;10261;49.010;12.034;2023-08-24T03:23:42;16.20;99.90
20204;DHT22;10261;49.010;12.034;2023-08-24T03:24:45;16.20;99.90
20204;DHT22;10261;49.010;12.034;2023-08-24T03:25:47;16.20;99.90
20204;DHT22;10261;49.010;12.034;2023-08-24T03:26:50;16.20;99.90
20204;DHT22;10261;49.010;12.034;2023-08-24T03:27:52;16.20;99.90
20204;DHT22;10261;49.010;12.034;2023-08-24T03:28:54;16.20;99.90
20204;DHT22;10261;49.010;12.034;2023-08-24T03:29:56;16.20;99.90
20204;DHT22;10261;49.010;12.034;2023-08-24T03:31:01;16.10;99.90
20204;DHT22;10261;49.010;12.034;2023-08-24T03:32:04;16.10;99.90
20204;DHT22;10261;49.010;12.034;2023-08-24T03:33:06;16.00;99.90
20204;DHT22;10261;49.010;12.034;2023-08-24T03:34:08;16.10;99.90
20204;DHT22;10261;49.010;12.034;2023-08-24T03:35:11;16.00;99.90
20204;DHT22;10261;49.010;12.034;2023-08-24T03:36:13;16.00;99.90
20204;DHT22;10261;49.010;12.034;2023-08-24T03:37:16;16.00;99.90
20204;DHT22;10261;49.010;12.034;2023-08-24T03:38:18;16.00;99.90
20204;DHT22;10261;49.010;12.034;2023-08-24T03:39:21;16.10;99.90
20204;DHT22;10261;49.010;12.034;2023-08-24T03:40:23;16.10;99.90
20204;DHT22;10261;49.010;12.034;2023-08-24T03:41:24;16.00;99.90
20204;DHT22;10261;49.010;12.034;2023-08-24T03:42:27;16.00;99.90
20204;DHT22;10261;49.010;12.034;2023-08-24T03:43:31;16.10;99.90
20204;DHT22;10261;49.010;12.034;2023-08-24T03:44:34;16.00;99.90
20204;DHT22;10261;49.010;12.034;2023-08-24T03:45:36;16.10;99.90
20204;DHT22;10261;49.010;12.034;2023-08-24T03:46:40;16.10;99.90
20204;DHT22;10261;49.010;12.034;2023-08-24T03:47:43;16.10;99.90
20204;DHT22;10261;49.010;12.034;2023-08-24T03:48:46;16.10;99.90
20204;DHT22;10261;49.010;12.034;2023-08-24T03:49:47;16.10;99.90
20204;DHT22;10261;49.010;12.034;2023-08-24T03:50:53;16.10;99.90
20204;DHT22;10261;49.010;12.034;2023-08-24T03:51:55;16.00;99.90
20204;DHT22;10261;49.010;12.034;2023-08-24T03:52:58;16.00;99.90
20204;DHT22;10261;49.010;12.034;2023-08-24T03:54:00;16.10;99.90
20204;DHT22;10261;49.010;12.034;2023-08-24T03:55:04;16.00;99.90
20204;DHT22;10261;49.010;12.034;2023-08-24T03:56:06;16.00;99.90
20204;DHT22;10261;49.010;12.034;2023-08-24T03:57:09;16.00;99.90
20204;DHT22;10261;49.010;12.034;2023-08-24T03:58:11;16.00;99.90
20204;DHT22;10261;49.010;12.034;2023-08-24T03:59:14;16.10;99.90
20204;DHT22;10261;49.010;12.034;2023-08-24T04:00:16;16.00;99.90
20204;DHT22;10261;49.010;12.034;2023-08-24T04:01:19;16.00;99.90
20204;DHT22;10261;49.010;12.034;2023-08-24T04:02:22;15.90;99.90
20204;DHT22;10261;49.010;12.034;2023-08-24T04:03:25;15.90;99.90
20204;DHT22;10261;49.010;12.034;2023-08-24T04:04:27;15.90;99.90
20204;DHT22;10261;49.010;12.034;2023-08-24T04:05:30;15.90;99.90
20204;DHT22;10261;49.010;12.034;2023-08-24T04:06:32;15.80;99.90
20204;DHT22;10261;49.010;12.034;2023-08-24T04:07:35;15.90;99.90
20204;DHT22;10261;49.010;12.034;2023-08-24T04:08:38;15.90;99.90
20204;DHT22;10261;49.010;12.034;2023-08-24T04:09:41;16.00;99.90
20204;DHT22;10261;49.010;12.034;2023-08-24T04:10:43;16.10;99.90
20204;DHT22;10261;49.010;12.034;2023-08-24T04:11:45;16.20;99.90
20204;DHT22;10261;49.010;12.034;2023-08-24T04:12:47;16.30;99.90
20204;DHT22;10261;49.010;12.034;2023-08-24T04:13:50;16.20;99.90
20204;DHT22;10261;49.010;12.034;2023-08-24T04:14:52;16.20;99.90
20204;DHT22;10261;49.010;12.034;2023-08-24T04:15:55;16.20;99.90
20204;DHT22;10261;49.010;12.034;2023-08-24T04:16:57;16.10;99.90
20204;DHT22;10261;49.010;12.034;2023-08-24T04:18:02;16.20;99.90
20204;DHT22;10261;49.010;12.034;2023-08-24T04:19:04;16.20;99.90
20204;DHT22;10261;49.010;12.034;2023-08-24T04:20:07;16.20;99.90
20204;DHT22;10261;49.010;12.034;2023-08-24T04:21:09;16.30;99.90
20204;DHT22;10261;49.010;12.034;2023-08-24T04:22:12;16.30;99.90
20204;DHT22;10261;49.010;12.034;2023-08-24T04:23:14;16.30;99.90
20204;DHT22;10261;49.010;12.034;2023-08-24T04:24:17;16.30;99.90
20204;DHT22;10261;49.010;12.034;2023-08-24T04:25:19;16.30;99.90
20204;DHT22;10261;49.010;12.034;2023-08-24T04:26:22;16.30;99.90
20204;DHT22;10261;49.010;12.034;2023-08-24T04:27:25;16.30;99.90
20204;DHT22;10261;49.010;12.034;2023-08-24T04:28:28;16.30;99.90
20204;DHT22;10261;49.010;12.034;2023-08-24T04:29:30;16.30;99.90
20204;DHT22;10261;49.010;12.034;2023-08-24T04:30:33;16.30;99.90
20204;DHT22;10261;49.010;12.034;2023-08-24T04:31:35;16.30;99.90
20204;DHT22;10261;49.010;12.034;2023-08-24T04:32:39;16.40;99.90
20204;DHT22;10261;49.010;12.034;2023-08-24T04:33:42;16.30;99.90
20204;DHT22;10261;49.010;12.034;2023-08-24T04:34:45;16.40;99.90
20204;DHT22;10261;49.010;12.034;2023-08-24T04:35:47;16.40;99.90
20204;DHT22;10261;49.010;12.034;2023-08-24T04:36:50;16.40;99.90
20204;DHT22;10261;49.010;12.034;2023-08-24T04:37:52;16.40;99.90
20204;DHT22;10261;49.010;12.034;2023-08-24T04:38:55;16.30;99.90
20204;DHT22;10261;49.010;12.034;2023-08-24T04:39:58;16.30;99.90
20204;DHT22;10261;49.010;12.034;2023-08-24T04:41:01;16.30;99.90
20204;DHT22;10261;49.010;12.034;2023-08-24T04:42:04;16.30;99.90
20204;DHT22;10261;49.010;12.034;2023-08-24T04:43:07;16.40;99.90
20204;DHT22;10261;49.010;12.034;2023-08-24T04:44:10;16.40;99.90
20204;DHT22;10261;49.010;12.034;2023-08-24T04:45:12;16.40;99.90
20204;DHT22;10261;49.010;12.034;2023-08-24T04:46:16;16.40;99.90
20204;DHT22;10261;49.010;12.034;2023-08-24T04:47:18;16.40;99.90
20204;DHT22;10261;49.010;12.034;2023-08-24T04:48:20;16.40;99.90
20204;DHT22;10261;49.010;12.034;2023-08-24T04:49:25;16.40;99.90
20204;DHT22;10261;49.010;12.034;2023-08-24T04:50:26;16.50;99.90
20204;DHT22;10261;49.010;12.034;2023-08-24T04:51:29;16.30;99.90
20204;DHT22;10261;49.010;12.034;2023-08-24T04:52:31;16.30;99.90
20204;DHT22;10261;49.010;12.034;2023-08-24T04:53:34;16.40;99.90
20204;DHT22;10261;49.010;12.034;2023-08-24T04:54:36;16.30;99.90
20204;DHT22;10261;49.010;12.034;2023-08-24T04:55:39;16.30;99.90
20204;DHT22;10261;49.010;12.034;2023-08-24T04:56:41;16.30;99.90
20204;DHT22;10261;49.010;12.034;2023-08-24T04:57:44;16.30;99.90
20204;DHT22;10261;49.010;12.034;2023-08-24T04:58:53;16.40;99.90
20204;DHT22;10261;49.010;12.034;2023-08-24T04:59:56;16.40;99.90
20204;DHT22;10261;49.010;12.034;2023-08-24T05:00:58;16.40;99.90
20204;DHT22;10261;49.010;12.034;2023-08-24T05:02:01;16.50;99.90
20204;DHT22;10261;49.010;12.034;2023-08-24T05:03:04;16.50;99.90
20204;DHT22;10261;49.010;12.034;2023-08-24T05:04:07;16.60;99.90
20204;DHT22;10261;49.010;12.034;2023-08-24T05:05:11;16.60;99.90
20204;DHT22;10261;49.010;12.034;2023-08-24T05:06:15;16.50;99.90
20204;DHT22;10261;49.010;12.034;2023-08-24T05:07:17;16.60;99.90
20204;DHT22;10261;49.010;12.034;2023-08-24T05:08:20;16.60;99.90
20204;DHT22;10261;49.010;12.034;2023-08-24T05:09:22;16.60;99.90
20204;DHT22;10261;49.010;12.034;2023-08-24T05:10:24;16.60;99.90
20204;DHT22;10261;49.010;12.034;2023-08-24T05:11:28;16.60;99.90
20204;DHT22;10261;49.010;12.034;2023-08-24T05:12:30;16.70;99.90
20204;DHT22;10261;49.010;12.034;2023-08-24T05:13:35;16.80;99.90
20204;DHT22;10261;49.010;12.034;2023-08-24T05:14:37;16.70;99.90
20204;DHT22;10261;49.010;12.034;2023-08-24T05:15:40;16.70;99.90
20204;DHT22;10261;49.010;12.034;2023-08-24T05:16:42;16.70;99.90
20204;DHT22;10261;49.010;12.034;2023-08-24T05:17:45;16.60;99.90
20204;DHT22;10261;49.010;12.034;2023-08-24T05:18:47;16.70;99.90
20204;DHT22;10261;49.010;12.034;2023-08-24T05:19:51;16.70;99.90
20204;DHT22;10261;49.010;12.034;2023-08-24T05:20:55;16.70;99.90
20204;DHT22;10261;49.010;12.034;2023-08-24T05:21:58;16.70;99.90
20204;DHT22;10261;49.010;12.034;2023-08-24T05:23:00;16.80;99.90
20204;DHT22;10261;49.010;12.034;2023-08-24T05:24:03;16.90;99.90
20204;DHT22;10261;49.010;12.034;2023-08-24T05:25:06;16.90;99.90
20204;DHT22;10261;49.010;12.034;2023-08-24T05:26:09;16.80;99.90
20204;DHT22;10261;49.010;12.034;2023-08-24T05:27:11;16.80;99.90
20204;DHT22;10261;49.010;12.034;2023-08-24T05:28:14;16.80;99.90
20204;DHT22;10261;49.010;12.034;2023-08-24T05:29:16;16.90;99.90
20204;DHT22;10261;49.010;12.034;2023-08-24T05:30:19;16.90;99.90
20204;DHT22;10261;49.010;12.034;2023-08-24T05:31:22;16.90;99.90
20204;DHT22;10261;49.010;12.034;2023-08-24T05:32:25;16.90;99.90
20204;DHT22;10261;49.010;12.034;2023-08-24T05:33:27;16.90;99.90
20204;DHT22;10261;49.010;12.034;2023-08-24T05:34:32;16.90;99.90
20204;DHT22;10261;49.010;12.034;2023-08-24T05:35:34;16.90;99.90
20204;DHT22;10261;49.010;12.034;2023-08-24T05:36:38;16.90;99.90
20204;DHT22;10261;49.010;12.034;2023-08-24T05:37:40;16.90;99.90
20204;DHT22;10261;49.010;12.034;2023-08-24T05:38:43;17.00;99.90
20204;DHT22;10261;49.010;12.034;2023-08-24T05:40:06;17.10;99.90
20204;DHT22;10261;49.010;12.034;2023-08-24T05:41:09;17.10;99.90
20204;DHT22;10261;49.010;12.034;2023-08-24T05:42:11;17.20;99.90
20204;DHT22;10261;49.010;12.034;2023-08-24T05:43:14;17.20;99.90
20204;DHT22;10261;49.010;12.034;2023-08-24T05:44:16;17.20;99.90
20204;DHT22;10261;49.010;12.034;2023-08-24T05:45:19;17.20;99.90
20204;DHT22;10261;49.010;12.034;2023-08-24T05:46:21;17.10;99.90
20204;DHT22;10261;49.010;12.034;2023-08-24T05:47:23;17.20;99.90
20204;DHT22;10261;49.010;12.034;2023-08-24T05:48:26;17.20;99.90
20204;DHT22;10261;49.010;12.034;2023-08-24T05:49:28;17.20;99.90
20204;DHT22;10261;49.010;12.034;2023-08-24T05:50:31;17.20;99.90
20204;DHT22;10261;49.010;12.034;2023-08-24T05:51:33;17.20;99.90
20204;DHT22;10261;49.010;12.034;2023-08-24T05:52:37;17.20;99.90
20204;DHT22;10261;49.010;12.034;2023-08-24T05:53:39;17.20;99.90
20204;DHT22;10261;49.010;12.034;2023-08-24T05:54:42;17.40;99.90
20204;DHT22;10261;49.010;12.034;2023-08-24T05:55:44;17.20;99.90
20204;DHT22;10261;49.010;12.034;2023-08-24T05:56:47;17.40;99.90
20204;DHT22;10261;49.010;12.034;2023-08-24T05:57:49;17.40;99.90
20204;DHT22;10261;49.010;12.034;2023-08-24T05:58:54;17.40;99.90
20204;DHT22;10261;49.010;12.034;2023-08-24T05:59:56;17.60;99.90
20204;DHT22;10261;49.010;12.034;2023-08-24T06:00:59;17.40;99.90
20204;DHT22;10261;49.010;12.034;2023-08-24T06:02:02;17.40;99.90
20204;DHT22;10261;49.010;12.034;2023-08-24T06:03:07;17.40;99.90
20204;DHT22;10261;49.010;12.034;2023-08-24T06:04:09;17.30;99.90
20204;DHT22;10261;49.010;12.034;2023-08-24T06:05:12;17.40;99.90
20204;DHT22;10261;49.010;12.034;2023-08-24T06:06:14;17.30;99.90
20204;DHT22;10261;49.010;12.034;2023-08-24T06:07:17;17.30;99.90
20204;DHT22;10261;49.010;12.034;2023-08-24T06:08:22;17.20;99.90
20204;DHT22;10261;49.010;12.034;2023-08-24T06:09:25;17.30;99.90
20204;DHT22;10261;49.010;12.034;2023-08-24T06:10:28;17.30;99.90
20204;DHT22;10261;49.010;12.034;2023-08-24T06:11:32;17.30;99.90
20204;DHT22;10261;49.010;12.034;2023-08-24T06:12:34;17.30;99.90
20204;DHT22;10261;49.010;12.034;2023-08-24T06:13:37;17.30;99.90
20204;DHT22;10261;49.010;12.034;2023-08-24T06:14:39;17.30;99.90
20204;DHT22;10261;49.010;12.034;2023-08-24T06:15:42;17.20;99.90
20204;DHT22;10261;49.010;12.034;2023-08-24T06:16:44;17.20;99.90
20204;DHT22;10261;49.010;12.034;2023-08-24T06:17:47;17.30;99.90
20204;DHT22;10261;49.010;12.034;2023-08-24T06:18:51;17.30;99.90
20204;DHT22;10261;49.010;12.034;2023-08-24T06:19:54;17.40;99.90
20204;DHT22;10261;49.010;12.034;2023-08-24T06:20:55;17.40;99.90
20204;DHT22;10261;49.010;12.034;2023-08-24T06:21:58;17.40;99.90
20204;DHT22;10261;49.010;12.034;2023-08-24T06:23:00;17.40;99.90
20204;DHT22;10261;49.010;12.034;2023-08-24T06:24:05;17.40;99.90
20204;DHT22;10261;49.010;12.034;2023-08-24T06:25:08;17.40;99.90
20204;DHT22;10261;49.010;12.034;2023-08-24T06:26:11;17.40;99.90
20204;DHT22;10261;49.010;12.034;2023-08-24T06:27:13;17.40;99.90
20204;DHT22;10261;49.010;12.034;2023-08-24T06:28:16;17.50;99.90
20204;DHT22;10261;49.010;12.034;2023-08-24T06:29:18;17.50;99.90
20204;DHT22;10261;49.010;12.034;2023-08-24T06:30:21;17.50;99.90
20204;DHT22;10261;49.010;12.034;2023-08-24T06:31:23;17.50;99.90
20204;DHT22;10261;49.010;12.034;2023-08-24T06:32:26;17.50;99.90